createdAt,value
2017-08-30T00:00:28.413Z,1006.06
2017-08-30T00:01:37.697Z,1006.08
2017-08-30T00:02:46.995Z,1006.05
2017-08-30T00:03:56.278Z,1006.02
2017-08-30T00:05:04.932Z,1005.99
2017-08-30T00:06:13.896Z,1005.99
2017-08-30T00:07:22.864Z,1005.98
2017-08-30T00:08:31.853Z,1005.96
2017-08-30T00:09:41.127Z,1005.97
2017-08-30T00:10:49.779Z,1005.95
2017-08-30T00:11:59.064Z,1005.94
2017-08-30T00:13:08.363Z,1005.95
2017-08-30T00:14:17.034Z,1005.95
2017-08-30T00:15:26.310Z,1005.92
2017-08-30T00:16:35.280Z,1005.9
2017-08-30T00:17:44.573Z,1005.92
2017-08-30T00:18:53.552Z,1005.93
2017-08-30T00:20:03.163Z,1005.9
2017-08-30T00:21:12.460Z,1005.94
2017-08-30T00:22:21.437Z,1005.91
2017-08-30T00:23:30.407Z,1005.93
2017-08-30T00:24:39.387Z,1005.91
2017-08-30T00:25:48.039Z,1005.91
2017-08-30T00:26:57.019Z,1005.88
2017-08-30T00:28:06.298Z,1005.85
2017-08-30T00:29:15.602Z,1005.87
2017-08-30T00:30:24.296Z,1005.82
2017-08-30T00:31:32.949Z,1005.77
2017-08-30T00:32:42.865Z,1005.77
2017-08-30T00:33:51.834Z,1005.74
2017-08-30T00:35:01.132Z,1005.77
2017-08-30T00:36:10.731Z,1005.76
2017-08-30T00:37:19.713Z,1005.77
2017-08-30T00:38:28.683Z,1005.75
2017-08-30T00:39:37.684Z,1005.76
2017-08-30T00:40:46.361Z,1005.74
2017-08-30T00:41:55.026Z,1005.7
2017-08-30T00:43:04.000Z,1005.76
2017-08-30T00:44:13.291Z,1005.66
2017-08-30T00:45:22.273Z,1005.7
2017-08-30T00:46:30.930Z,1005.71
2017-08-30T00:47:40.230Z,1005.69
2017-08-30T00:48:49.206Z,1005.67
2017-08-30T00:49:57.855Z,1005.68
2017-08-30T00:51:06.824Z,1005.63
2017-08-30T00:52:15.798Z,1005.61
2017-08-30T00:53:24.458Z,1005.61
2017-08-30T00:54:34.067Z,1005.61
2017-08-30T00:55:42.726Z,1005.59
2017-08-30T00:56:51.705Z,1005.58
2017-08-30T00:58:00.997Z,1005.54
2017-08-30T00:59:10.287Z,1005.6
2017-08-30T01:00:19.600Z,1005.57
2017-08-30T01:01:28.583Z,1005.59
2017-08-30T01:02:37.571Z,1005.55
2017-08-30T01:03:46.557Z,1005.54
2017-08-30T01:04:55.833Z,1005.52
2017-08-30T01:06:04.502Z,1005.54
2017-08-30T01:07:13.472Z,1005.53
2017-08-30T01:08:22.462Z,1005.5
2017-08-30T01:09:31.418Z,1005.51
2017-08-30T01:10:40.703Z,1005.51
2017-08-30T01:11:50.296Z,1005.49
2017-08-30T01:12:59.263Z,1005.48
2017-08-30T01:14:08.559Z,1005.49
2017-08-30T01:15:17.221Z,1005.46
2017-08-30T01:16:26.189Z,1005.48
2017-08-30T01:17:35.159Z,1005.42
2017-08-30T01:18:44.467Z,1005.42
2017-08-30T01:19:53.754Z,1005.39
2017-08-30T01:21:03.030Z,1005.39
2017-08-30T01:22:11.692Z,1005.36
2017-08-30T01:23:20.991Z,1005.37
2017-08-30T01:24:30.344Z,1005.36
2017-08-30T01:25:39.317Z,1005.32
2017-08-30T01:26:48.608Z,1005.27
2017-08-30T01:27:58.225Z,1005.25
2017-08-30T01:29:07.518Z,1005.18
2017-08-30T01:30:16.483Z,1005.17
2017-08-30T01:31:25.771Z,1005.17
2017-08-30T01:32:35.408Z,1005.11
2017-08-30T01:33:44.694Z,1005.12
2017-08-30T01:34:53.660Z,1005.14
2017-08-30T01:36:02.643Z,1005.09
2017-08-30T01:37:11.614Z,1005.1
2017-08-30T01:38:20.887Z,1005.07
2017-08-30T01:39:30.177Z,1005.06
2017-08-30T01:40:39.470Z,1005.03
2017-08-30T01:41:48.447Z,1004.97
2017-08-30T01:42:57.109Z,1004.99
2017-08-30T01:44:05.770Z,1004.93
2017-08-30T01:45:14.741Z,1004.94
2017-08-30T01:46:23.720Z,1004.96
2017-08-30T01:47:33.010Z,1004.95
2017-08-30T01:48:41.663Z,1004.96
2017-08-30T01:49:50.316Z,1004.95
2017-08-30T01:50:59.287Z,1004.93
2017-08-30T01:52:08.564Z,1004.92
2017-08-30T01:53:17.849Z,1004.95
2017-08-30T01:54:27.466Z,1004.91
2017-08-30T01:55:36.754Z,1004.91
2017-08-30T01:56:46.038Z,1004.9
2017-08-30T01:57:54.699Z,1004.87
2017-08-30T01:59:03.353Z,1004.87
2017-08-30T02:00:12.326Z,1004.83
2017-08-30T02:01:21.365Z,1004.8
2017-08-30T02:02:30.658Z,1004.76
2017-08-30T02:03:40.264Z,1004.76
2017-08-30T02:04:49.544Z,1004.74
2017-08-30T02:05:58.214Z,1004.74
2017-08-30T02:07:07.492Z,1004.71
2017-08-30T02:08:16.150Z,1004.78
2017-08-30T02:09:25.126Z,1004.79
2017-08-30T02:10:33.794Z,1004.8
2017-08-30T02:11:42.770Z,1004.81
2017-08-30T02:12:51.738Z,1004.84
2017-08-30T02:14:00.699Z,1004.83
2017-08-30T02:15:09.984Z,1004.77
2017-08-30T02:16:18.966Z,1004.76
2017-08-30T02:17:28.314Z,1004.74
2017-08-30T02:18:37.915Z,1004.73
2017-08-30T02:19:47.507Z,1004.72
2017-08-30T02:20:56.186Z,1004.69
2017-08-30T02:22:04.856Z,1004.69
2017-08-30T02:23:14.152Z,1004.67
2017-08-30T02:24:23.444Z,1004.69
2017-08-30T02:25:32.423Z,1004.7
2017-08-30T02:26:41.731Z,1004.68
2017-08-30T02:27:51.000Z,1004.68
2017-08-30T02:29:00.289Z,1004.67
2017-08-30T02:30:09.586Z,1004.65
2017-08-30T02:31:18.576Z,1004.63
2017-08-30T02:32:27.549Z,1004.63
2017-08-30T02:33:36.210Z,1004.59
2017-08-30T02:34:45.189Z,1004.6
2017-08-30T02:35:54.475Z,1004.59
2017-08-30T02:37:03.448Z,1004.55
2017-08-30T02:38:12.109Z,1004.55
2017-08-30T02:39:21.725Z,1004.59
2017-08-30T02:40:30.456Z,1004.58
2017-08-30T02:41:40.366Z,1004.58
2017-08-30T02:42:49.362Z,1004.59
2017-08-30T02:43:58.397Z,1004.59
2017-08-30T02:45:08.013Z,1004.6
2017-08-30T02:46:17.383Z,1004.59
2017-08-30T02:47:26.360Z,1004.57
2017-08-30T02:48:35.346Z,1004.53
2017-08-30T02:49:44.630Z,1004.53
2017-08-30T02:50:53.305Z,1004.51
2017-08-30T02:52:01.951Z,1004.53
2017-08-30T02:53:10.617Z,1004.51
2017-08-30T02:54:19.270Z,1004.51
2017-08-30T02:55:28.564Z,1004.46
2017-08-30T02:56:37.846Z,1004.47
2017-08-30T02:57:47.453Z,1004.5
2017-08-30T02:58:57.049Z,1004.45
2017-08-30T03:00:06.341Z,1004.44
2017-08-30T03:01:15.636Z,1004.47
2017-08-30T03:02:24.313Z,1004.42
2017-08-30T03:03:33.267Z,1004.45
2017-08-30T03:04:42.561Z,1004.39
2017-08-30T03:05:51.315Z,1004.4
2017-08-30T03:07:00.604Z,1004.39
2017-08-30T03:08:09.259Z,1004.37
2017-08-30T03:09:18.245Z,1004.38
2017-08-30T03:10:27.217Z,1004.36
2017-08-30T03:11:36.220Z,1004.34
2017-08-30T03:12:45.512Z,1004.35
2017-08-30T03:13:54.477Z,1004.33
2017-08-30T03:15:03.136Z,1004.34
2017-08-30T03:16:12.105Z,1004.37
2017-08-30T03:17:21.091Z,1004.35
2017-08-30T03:18:30.058Z,1004.34
2017-08-30T03:19:39.362Z,1004.37
2017-08-30T03:20:48.356Z,1004.31
2017-08-30T03:21:57.010Z,1004.31
2017-08-30T03:23:06.043Z,1004.26
2017-08-30T03:24:15.333Z,1004.27
2017-08-30T03:25:23.986Z,1004.29
2017-08-30T03:26:32.635Z,1004.26
2017-08-30T03:27:41.613Z,1004.25
2017-08-30T03:28:50.584Z,1004.25
2017-08-30T03:29:59.872Z,1004.28
2017-08-30T03:31:09.174Z,1004.26
2017-08-30T03:32:18.482Z,1004.27
2017-08-30T03:33:28.094Z,1004.23
2017-08-30T03:34:36.750Z,1004.2
2017-08-30T03:35:45.747Z,1004.17
2017-08-30T03:36:54.403Z,1004.16
2017-08-30T03:38:03.077Z,1004.15
2017-08-30T03:39:12.386Z,1004.13
2017-08-30T03:40:21.036Z,1004.15
2017-08-30T03:41:30.319Z,1004.19
2017-08-30T03:42:39.597Z,1004.15
2017-08-30T03:43:48.898Z,1004.13
2017-08-30T03:44:58.518Z,1004.14
2017-08-30T03:46:08.126Z,1004.15
2017-08-30T03:47:16.785Z,1004.17
2017-08-30T03:48:25.430Z,1004.18
2017-08-30T03:49:34.396Z,1004.18
2017-08-30T03:50:43.673Z,1004.13
2017-08-30T03:51:52.340Z,1004.17
2017-08-30T03:53:01.317Z,1004.15
2017-08-30T03:54:10.596Z,1004.13
2017-08-30T03:55:19.563Z,1004.12
2017-08-30T03:56:28.541Z,1004.09
2017-08-30T03:57:37.838Z,1004.06
2017-08-30T03:58:47.130Z,1004.03
2017-08-30T03:59:56.427Z,1004.02
2017-08-30T04:01:05.402Z,1004.02
2017-08-30T04:02:14.363Z,1004.01
2017-08-30T04:03:23.646Z,1004
2017-08-30T04:04:32.927Z,1004
2017-08-30T04:05:41.899Z,1003.97
2017-08-30T04:06:50.884Z,1003.99
2017-08-30T04:07:59.853Z,1004.01
2017-08-30T04:09:08.512Z,1004.02
2017-08-30T04:10:17.796Z,1004.01
2017-08-30T04:11:26.768Z,1003.99
2017-08-30T04:12:35.420Z,1003.98
2017-08-30T04:13:45.028Z,1003.99
2017-08-30T04:14:54.318Z,1004.02
2017-08-30T04:16:03.604Z,1003.99
2017-08-30T04:17:12.892Z,1003.96
2017-08-30T04:18:21.559Z,1003.96
2017-08-30T04:19:30.534Z,1003.95
2017-08-30T04:20:39.829Z,1003.91
2017-08-30T04:21:48.814Z,1003.89
2017-08-30T04:22:57.474Z,1003.88
2017-08-30T04:24:06.766Z,1003.84
2017-08-30T04:25:16.059Z,1003.86
2017-08-30T04:26:24.766Z,1003.84
2017-08-30T04:27:33.788Z,1003.81
2017-08-30T04:28:43.162Z,1003.82
2017-08-30T04:29:52.196Z,1003.78
2017-08-30T04:31:01.574Z,1003.77
2017-08-30T04:32:10.881Z,1003.7
2017-08-30T04:33:20.190Z,1003.68
2017-08-30T04:34:29.806Z,1003.72
2017-08-30T04:35:38.467Z,1003.69
2017-08-30T04:36:48.077Z,1003.68
2017-08-30T04:37:57.676Z,1003.68
2017-08-30T04:39:06.956Z,1003.68
2017-08-30T04:40:15.929Z,1003.67
2017-08-30T04:41:25.675Z,1003.63
2017-08-30T04:42:34.643Z,1003.6
2017-08-30T04:43:43.317Z,1003.57
2017-08-30T04:44:52.303Z,1003.55
2017-08-30T04:46:01.599Z,1003.57
2017-08-30T04:47:10.575Z,1003.55
2017-08-30T04:48:19.542Z,1003.56
2017-08-30T04:49:28.841Z,1003.52
2017-08-30T04:50:38.131Z,1003.52
2017-08-30T04:51:47.101Z,1003.54
2017-08-30T04:52:55.759Z,1003.52
2017-08-30T04:54:04.723Z,1003.47
2017-08-30T04:55:13.372Z,1003.44
2017-08-30T04:56:22.670Z,1003.48
2017-08-30T04:57:32.287Z,1003.51
2017-08-30T04:58:40.952Z,1003.5
2017-08-30T04:59:49.914Z,1003.5
2017-08-30T05:00:58.612Z,1003.47
2017-08-30T05:02:08.207Z,1003.54
2017-08-30T05:03:17.192Z,1003.53
2017-08-30T05:04:26.177Z,1003.55
2017-08-30T05:05:35.148Z,1003.57
2017-08-30T05:06:44.456Z,1003.57
2017-08-30T05:07:53.431Z,1003.64
2017-08-30T05:09:03.048Z,1003.65
2017-08-30T05:10:12.327Z,1003.63
2017-08-30T05:11:21.949Z,1003.61
2017-08-30T05:12:30.928Z,1003.62
2017-08-30T05:13:40.847Z,1003.6
2017-08-30T05:14:49.503Z,1003.59
2017-08-30T05:15:58.152Z,1003.57
2017-08-30T05:17:07.434Z,1003.6
2017-08-30T05:18:16.087Z,1003.57
2017-08-30T05:19:25.696Z,1003.58
2017-08-30T05:20:34.680Z,1003.54
2017-08-30T05:21:43.720Z,1003.51
2017-08-30T05:22:53.012Z,1003.53
2017-08-30T05:24:01.981Z,1003.52
2017-08-30T05:25:10.972Z,1003.5
2017-08-30T05:26:19.630Z,1003.48
2017-08-30T05:27:28.611Z,1003.43
2017-08-30T05:28:37.896Z,1003.43
2017-08-30T05:29:46.568Z,1003.43
2017-08-30T05:30:55.887Z,1003.38
2017-08-30T05:32:05.194Z,1003.34
2017-08-30T05:33:13.867Z,1003.32
2017-08-30T05:34:22.898Z,1003.27
2017-08-30T05:35:31.624Z,1003.31
2017-08-30T05:36:40.994Z,1003.31
2017-08-30T05:37:49.974Z,1003.26
2017-08-30T05:38:58.961Z,1003.25
2017-08-30T05:40:07.621Z,1003.21
2017-08-30T05:41:16.616Z,1003.21
2017-08-30T05:42:25.638Z,1003.17
2017-08-30T05:43:34.299Z,1003.15
2017-08-30T05:44:42.968Z,1003.13
2017-08-30T05:45:51.645Z,1003.08
2017-08-30T05:47:00.609Z,1003.09
2017-08-30T05:48:10.206Z,1003.06
2017-08-30T05:49:19.198Z,1003.08
2017-08-30T05:50:28.174Z,1003
2017-08-30T05:51:36.827Z,1002.98
2017-08-30T05:52:46.150Z,1002.99
2017-08-30T05:53:54.807Z,1002.95
2017-08-30T05:55:03.525Z,1003
2017-08-30T05:56:12.516Z,1002.97
2017-08-30T05:57:21.526Z,1002.98
2017-08-30T05:58:31.168Z,1002.98
2017-08-30T05:59:40.457Z,1002.95
2017-08-30T06:00:50.088Z,1002.96
2017-08-30T06:01:59.079Z,1002.94
2017-08-30T06:03:08.100Z,1002.92
2017-08-30T06:04:16.780Z,1002.88
2017-08-30T06:05:25.786Z,1002.94
2017-08-30T06:06:34.770Z,1002.94
2017-08-30T06:07:43.799Z,1002.93
2017-08-30T06:08:52.803Z,1002.91
2017-08-30T06:10:01.694Z,1002.89
2017-08-30T06:11:11.303Z,1002.87
2017-08-30T06:12:20.682Z,1002.85
2017-08-30T06:13:30.010Z,1002.85
2017-08-30T06:14:38.676Z,1002.89
2017-08-30T06:15:47.997Z,1002.89
2017-08-30T06:16:57.296Z,1002.88
2017-08-30T06:18:06.077Z,1002.93
2017-08-30T06:19:15.368Z,1002.89
2017-08-30T06:20:24.761Z,1002.88
2017-08-30T06:21:33.732Z,1002.9
2017-08-30T06:22:43.889Z,1002.89
2017-08-30T06:23:53.529Z,1002.91
2017-08-30T06:25:03.843Z,1002.93
2017-08-30T06:26:12.918Z,1002.96
2017-08-30T06:27:22.226Z,1002.88
2017-08-30T06:28:31.073Z,1002.88
2017-08-30T06:29:40.388Z,1002.87
2017-08-30T06:30:49.694Z,1002.8
2017-08-30T06:31:59.032Z,1002.82
2017-08-30T06:33:08.396Z,1002.83
2017-08-30T06:34:17.663Z,1002.77
2017-08-30T06:35:27.564Z,1002.78
2017-08-30T06:36:36.312Z,1002.79
2017-08-30T06:37:46.590Z,1002.8
2017-08-30T06:38:55.607Z,1002.81
2017-08-30T06:40:04.592Z,1002.77
2017-08-30T06:41:14.522Z,1002.79
2017-08-30T06:42:23.512Z,1002.8
2017-08-30T06:43:32.177Z,1002.8
2017-08-30T06:44:41.165Z,1002.82
2017-08-30T06:45:50.146Z,1002.8
2017-08-30T06:46:59.137Z,1002.8
2017-08-30T06:48:08.427Z,1002.83
2017-08-30T06:49:17.424Z,1002.82
2017-08-30T06:50:26.403Z,1002.86
2017-08-30T06:51:35.392Z,1002.84
2017-08-30T06:52:44.420Z,1002.89
2017-08-30T06:53:53.083Z,1002.89
2017-08-30T06:55:02.707Z,1002.91
2017-08-30T06:56:12.009Z,1002.93
2017-08-30T06:57:21.003Z,1002.89
2017-08-30T06:58:29.989Z,1003.01
2017-08-30T06:59:39.300Z,1003.02
2017-08-30T07:00:48.605Z,1003.04
2017-08-30T07:01:57.264Z,1003.1
2017-08-30T07:03:06.282Z,1003.13
2017-08-30T07:04:15.587Z,1003.13
2017-08-30T07:05:24.251Z,1003.2
2017-08-30T07:06:33.603Z,1003.3
2017-08-30T07:07:42.288Z,1003.43
2017-08-30T07:08:51.300Z,1003.71
2017-08-30T07:10:00.901Z,1003.94
2017-08-30T07:11:10.205Z,1004.11
2017-08-30T07:12:19.537Z,1004.28
2017-08-30T07:13:29.197Z,1004.48
2017-08-30T07:14:38.170Z,1004.62
2017-08-30T07:15:47.170Z,1004.6
2017-08-30T07:16:56.157Z,1004.63
2017-08-30T07:18:05.775Z,1004.68
2017-08-30T07:19:14.785Z,1004.66
2017-08-30T07:20:23.780Z,1004.61
2017-08-30T07:21:32.768Z,1004.74
2017-08-30T07:22:41.738Z,1004.82
2017-08-30T07:23:50.720Z,1004.75
2017-08-30T07:24:59.392Z,1004.71
2017-08-30T07:26:08.383Z,1004.65
2017-08-30T07:27:17.373Z,1004.58
2017-08-30T07:28:26.690Z,1004.51
2017-08-30T07:29:35.378Z,1004.44
2017-08-30T07:30:44.097Z,1004.44
2017-08-30T07:31:52.755Z,1004.45
2017-08-30T07:33:02.367Z,1004.51
2017-08-30T07:34:11.338Z,1004.54
2017-08-30T07:35:20.342Z,1004.54
2017-08-30T07:36:29.343Z,1004.54
2017-08-30T07:37:38.976Z,1004.51
2017-08-30T07:38:48.348Z,1004.47
2017-08-30T07:39:57.655Z,1004.42
2017-08-30T07:41:06.353Z,1004.37
2017-08-30T07:42:15.669Z,1004.38
2017-08-30T07:43:24.322Z,1004.36
2017-08-30T07:44:33.622Z,1004.36
2017-08-30T07:45:42.281Z,1004.33
2017-08-30T07:46:51.296Z,1004.34
2017-08-30T07:47:59.994Z,1004.43
2017-08-30T07:49:09.344Z,1004.44
2017-08-30T07:50:18.318Z,1004.48
2017-08-30T07:51:26.974Z,1004.46
2017-08-30T07:52:36.573Z,1004.42
2017-08-30T07:53:45.567Z,1004.4
2017-08-30T07:54:54.553Z,1004.36
2017-08-30T07:56:22.742Z,1004.3
2017-08-30T07:57:31.776Z,1004.29
2017-08-30T07:58:41.394Z,1004.3
2017-08-30T07:59:50.670Z,1004.26
2017-08-30T08:00:59.679Z,1004.27
2017-08-30T08:02:09.653Z,1004.25
2017-08-30T08:03:18.627Z,1004.26
2017-08-30T08:04:27.619Z,1004.25
2017-08-30T08:05:36.269Z,1004.19
2017-08-30T08:06:45.239Z,1004.14
2017-08-30T08:07:54.203Z,1004.1
2017-08-30T08:09:03.167Z,1004.07
2017-08-30T08:10:12.133Z,1004.02
2017-08-30T08:11:21.417Z,1004
2017-08-30T08:12:30.419Z,1004.04
2017-08-30T08:13:39.705Z,1004.07
2017-08-30T08:14:49.011Z,1004.07
2017-08-30T08:15:58.622Z,1004.05
2017-08-30T08:17:07.604Z,1004.05
2017-08-30T08:18:16.297Z,1004.03
2017-08-30T08:19:25.273Z,1004.03
2017-08-30T08:23:06.619Z,1003.89
2017-08-30T08:24:15.596Z,1003.88
2017-08-30T08:25:24.729Z,1003.91
2017-08-30T08:26:33.730Z,1003.91
2017-08-30T08:27:42.693Z,1003.92
2017-08-30T08:31:24.352Z,1003.99
2017-08-30T08:35:05.712Z,1004.21
2017-08-30T08:42:30.061Z,1004.13
2017-08-30T08:46:12.050Z,1003.8
2017-08-30T08:47:21.667Z,1003.81
2017-08-30T08:53:35.711Z,1004.11
2017-08-30T08:54:44.710Z,1004.05
2017-08-30T09:02:14.273Z,1003.78
2017-08-30T09:03:23.565Z,1003.81
2017-08-30T09:04:33.481Z,1003.78
2017-08-30T09:05:42.146Z,1003.68
2017-08-30T09:06:51.130Z,1003.6
2017-08-30T09:07:59.811Z,1003.61
2017-08-30T09:09:09.432Z,1003.6
2017-08-30T09:10:18.745Z,1003.63
2017-08-30T09:11:27.462Z,1003.62
2017-08-30T09:12:36.132Z,1003.67
2017-08-30T09:13:44.779Z,1003.69
2017-08-30T09:14:54.393Z,1003.73
2017-08-30T09:16:03.368Z,1003.76
2017-08-30T09:17:12.658Z,1003.84
2017-08-30T09:18:21.645Z,1003.87
2017-08-30T09:19:30.933Z,1003.82
2017-08-30T09:20:40.222Z,1003.79
2017-08-30T09:21:49.560Z,1003.79
2017-08-30T09:22:58.859Z,1003.81
2017-08-30T09:24:07.825Z,1003.89
2017-08-30T09:25:16.804Z,1003.93
2017-08-30T09:26:25.782Z,1004.07
2017-08-30T09:27:34.749Z,1004.1
2017-08-30T09:28:43.428Z,1004.13
2017-08-30T09:29:52.712Z,1004.15
2017-08-30T09:31:02.313Z,1004.16
2017-08-30T09:32:10.994Z,1004.1
2017-08-30T09:33:20.648Z,1004.02
2017-08-30T09:34:29.938Z,1003.98
2017-08-30T09:35:39.550Z,1003.95
2017-08-30T09:36:48.835Z,1003.92
2017-08-30T09:37:57.803Z,1003.91
2017-08-30T09:39:06.801Z,1003.9
2017-08-30T09:40:15.451Z,1003.85
2017-08-30T09:41:24.425Z,1003.83
2017-08-30T09:42:33.445Z,1003.78
2017-08-30T09:43:42.421Z,1003.72
2017-08-30T09:44:51.399Z,1003.67
2017-08-30T09:46:00.687Z,1003.7
2017-08-30T09:47:09.679Z,1003.65
2017-08-30T09:48:18.974Z,1003.57
2017-08-30T09:49:28.303Z,1003.54
2017-08-30T09:50:37.319Z,1003.5
2017-08-30T09:51:46.307Z,1003.45
2017-08-30T09:52:55.287Z,1003.43
2017-08-30T09:54:04.572Z,1003.3
2017-08-30T09:55:13.233Z,1003.24
2017-08-30T09:56:21.879Z,1003.25
2017-08-30T09:57:30.907Z,1003.17
2017-08-30T09:58:39.561Z,1003.18
2017-08-30T09:59:48.873Z,1003.16
2017-08-30T10:00:57.547Z,1003.18
2017-08-30T10:02:06.300Z,1003.13
2017-08-30T10:03:15.588Z,1003.13
2017-08-30T10:04:24.610Z,1003.15
2017-08-30T10:05:34.581Z,1003.2
2017-08-30T10:06:43.248Z,1003.23
2017-08-30T10:07:52.228Z,1003.26
2017-08-30T10:09:01.620Z,1003.29
2017-08-30T10:10:11.104Z,1003.35
2017-08-30T10:11:20.708Z,1003.35
2017-08-30T10:12:30.333Z,1003.33
2017-08-30T10:13:41.222Z,1003.27
2017-08-30T10:14:50.539Z,1003.22
2017-08-30T10:16:00.854Z,1003.18
2017-08-30T10:17:10.127Z,1003.18
2017-08-30T10:18:19.117Z,1003.16
2017-08-30T10:19:28.087Z,1003.13
2017-08-30T10:20:37.378Z,1003.16
2017-08-30T10:21:46.041Z,1003.12
2017-08-30T10:22:55.017Z,1003.12
2017-08-30T10:24:04.618Z,1003.17
2017-08-30T10:25:13.586Z,1003.19
2017-08-30T10:26:22.612Z,1003.15
2017-08-30T10:27:31.597Z,1003.09
2017-08-30T10:28:40.557Z,1003.09
2017-08-30T10:29:49.530Z,1003.02
2017-08-30T10:30:58.501Z,1003.01
2017-08-30T10:32:07.779Z,1002.99
2017-08-30T10:33:16.746Z,1003.01
2017-08-30T10:34:25.399Z,1003
2017-08-30T10:35:34.370Z,1003.04
2017-08-30T10:36:43.341Z,1003.08
2017-08-30T10:37:52.313Z,1003.09
2017-08-30T10:39:02.244Z,1003.05
2017-08-30T10:40:11.849Z,1003.05
2017-08-30T10:41:21.129Z,1003.03
2017-08-30T10:42:29.826Z,1003.01
2017-08-30T10:43:38.795Z,1003.04
2017-08-30T10:44:47.813Z,1003.07
2017-08-30T10:45:56.478Z,1003.09
2017-08-30T10:47:05.769Z,1003.04
2017-08-30T10:48:15.051Z,1003.08
2017-08-30T10:49:23.719Z,1003.07
2017-08-30T10:50:32.400Z,1003.11
2017-08-30T10:51:41.369Z,1003.18
2017-08-30T10:52:50.032Z,1003.23
2017-08-30T10:53:58.697Z,1003.29
2017-08-30T10:55:08.000Z,1003.31
2017-08-30T10:56:16.643Z,1003.38
2017-08-30T10:57:25.614Z,1003.4
2017-08-30T10:58:34.572Z,1003.43
2017-08-30T10:59:43.551Z,1003.45
2017-08-30T11:00:52.837Z,1003.45
2017-08-30T11:02:01.808Z,1003.44
2017-08-30T11:03:11.096Z,1003.38
2017-08-30T11:04:20.069Z,1003.36
2017-08-30T11:05:29.050Z,1003.38
2017-08-30T11:06:38.023Z,1003.35
2017-08-30T11:07:46.738Z,1003.42
2017-08-30T11:08:56.040Z,1003.42
2017-08-30T11:10:04.690Z,1003.43
2017-08-30T11:11:13.667Z,1003.44
2017-08-30T11:12:23.277Z,1003.44
2017-08-30T11:13:32.575Z,1003.46
2017-08-30T11:14:41.224Z,1003.46
2017-08-30T11:15:50.505Z,1003.43
2017-08-30T11:17:00.190Z,1003.43
2017-08-30T11:18:08.840Z,1003.4
2017-08-30T11:19:18.133Z,1003.45
2017-08-30T11:20:26.947Z,1003.43
2017-08-30T11:21:35.922Z,1003.39
2017-08-30T11:22:45.215Z,1003.37
2017-08-30T11:23:54.794Z,1003.34
2017-08-30T11:25:03.454Z,1003.27
2017-08-30T11:26:12.737Z,1003.3
2017-08-30T11:27:21.381Z,1003.23
2017-08-30T11:28:30.662Z,1003.25
2017-08-30T11:29:39.938Z,1003.24
2017-08-30T11:30:48.921Z,1003.23
2017-08-30T11:31:58.206Z,1003.22
2017-08-30T11:33:07.495Z,1003.23
2017-08-30T11:34:16.487Z,1003.23
2017-08-30T11:35:25.833Z,1003.16
2017-08-30T11:36:34.832Z,1003.18
2017-08-30T11:37:43.503Z,1003.17
2017-08-30T11:38:52.465Z,1003.21
2017-08-30T11:40:01.430Z,1003.22
2017-08-30T11:41:10.401Z,1003.21
2017-08-30T11:42:19.051Z,1003.23
2017-08-30T11:43:27.695Z,1003.2
2017-08-30T11:44:36.665Z,1003.07
2017-08-30T11:45:45.952Z,1003.1
2017-08-30T11:46:55.239Z,1003.1
2017-08-30T11:48:05.459Z,1003.03
2017-08-30T11:49:14.127Z,1003.01
2017-08-30T11:50:23.408Z,1002.95
2017-08-30T11:51:32.684Z,1002.96
2017-08-30T11:52:42.299Z,1002.91
2017-08-30T11:53:51.292Z,1002.91
2017-08-30T11:55:00.569Z,1002.96
2017-08-30T11:56:09.226Z,1002.98
2017-08-30T11:57:18.189Z,1002.98
2017-08-30T11:58:27.791Z,1002.94
2017-08-30T11:59:37.392Z,1002.97
2017-08-30T12:00:46.359Z,1002.99
2017-08-30T12:01:55.643Z,1003
2017-08-30T12:03:04.623Z,1003.05
2017-08-30T12:04:13.309Z,1003.04
2017-08-30T12:05:23.026Z,1003.09
2017-08-30T12:06:32.831Z,1003.06
2017-08-30T12:07:42.812Z,1003.05
2017-08-30T12:08:52.112Z,1003.02
2017-08-30T12:10:02.009Z,1003.09
2017-08-30T12:11:11.623Z,1003.04
2017-08-30T12:12:21.384Z,1003
2017-08-30T12:13:31.064Z,1003.04
2017-08-30T12:14:39.747Z,1003.03
2017-08-30T12:15:48.749Z,1003.02
2017-08-30T12:16:58.227Z,1003.03
2017-08-30T12:18:08.747Z,1003.01
2017-08-30T12:19:18.254Z,1003.03
2017-08-30T12:20:27.859Z,1003
2017-08-30T12:21:37.345Z,1003.02
2017-08-30T12:22:48.185Z,1003
2017-08-30T12:23:57.096Z,1002.98
2017-08-30T12:25:06.208Z,1002.94
2017-08-30T12:26:15.035Z,1003.01
2017-08-30T12:27:24.315Z,1002.98
2017-08-30T12:28:32.981Z,1002.98
2017-08-30T12:29:42.267Z,1003
2017-08-30T12:30:51.238Z,1003.04
2017-08-30T12:32:00.533Z,1003.03
2017-08-30T12:33:09.506Z,1003.02
2017-08-30T12:34:18.791Z,1003.05
2017-08-30T12:35:27.778Z,1003.02
2017-08-30T12:36:37.073Z,1002.99
2017-08-30T12:37:46.046Z,1003.05
2017-08-30T12:38:55.349Z,1003.03
2017-08-30T12:40:04.007Z,1003.01
2017-08-30T12:41:13.662Z,1003.01
2017-08-30T12:42:22.964Z,1003.02
2017-08-30T12:43:31.624Z,1002.99
2017-08-30T12:44:40.614Z,1003.01
2017-08-30T12:45:49.887Z,1002.99
2017-08-30T12:46:59.207Z,1002.97
2017-08-30T12:48:07.866Z,1003.01
2017-08-30T12:49:17.172Z,1003.02
2017-08-30T12:50:26.217Z,1003.02
2017-08-30T12:51:35.191Z,1003.03
2017-08-30T12:52:44.151Z,1002.99
2017-08-30T12:53:53.438Z,1003
2017-08-30T12:55:03.364Z,1003.02
2017-08-30T12:56:12.657Z,1003.02
2017-08-30T12:57:21.325Z,1002.99
2017-08-30T12:58:30.125Z,1003
2017-08-30T12:59:39.722Z,1003
2017-08-30T13:00:49.320Z,1002.96
2017-08-30T13:01:58.294Z,1002.96
2017-08-30T13:03:07.278Z,1002.92
2017-08-30T13:04:17.356Z,1002.93
2017-08-30T13:05:26.652Z,1002.91
2017-08-30T13:06:35.938Z,1002.95
2017-08-30T13:07:44.896Z,1002.93
2017-08-30T13:08:53.555Z,1002.95
2017-08-30T13:10:02.985Z,1002.95
2017-08-30T13:11:12.589Z,1002.91
2017-08-30T13:12:22.188Z,1002.88
2017-08-30T13:13:31.469Z,1002.87
2017-08-30T13:14:40.440Z,1002.85
2017-08-30T13:15:49.463Z,1002.82
2017-08-30T13:16:58.750Z,1002.78
2017-08-30T13:18:08.033Z,1002.77
2017-08-30T13:19:16.686Z,1002.77
2017-08-30T13:20:26.295Z,1002.79
2017-08-30T13:21:35.113Z,1002.75
2017-08-30T13:22:43.779Z,1002.76
2017-08-30T13:23:52.755Z,1002.72
2017-08-30T13:25:01.724Z,1002.72
2017-08-30T13:26:10.379Z,1002.7
2017-08-30T13:27:20.124Z,1002.59
2017-08-30T13:28:29.407Z,1002.55
2017-08-30T13:29:38.052Z,1002.53
2017-08-30T13:30:47.357Z,1002.53
2017-08-30T13:31:56.650Z,1002.5
2017-08-30T13:33:06.437Z,1002.48
2017-08-30T13:34:15.749Z,1002.45
2017-08-30T13:35:24.401Z,1002.44
2017-08-30T13:36:33.061Z,1002.4
2017-08-30T13:37:42.963Z,1002.36
2017-08-30T13:38:52.032Z,1002.37
2017-08-30T13:40:00.703Z,1002.36
2017-08-30T13:41:09.352Z,1002.37
2017-08-30T13:42:18.626Z,1002.32
2017-08-30T13:43:27.909Z,1002.29
2017-08-30T13:44:36.880Z,1002.4
2017-08-30T13:45:45.850Z,1002.38
2017-08-30T13:46:54.817Z,1002.31
2017-08-30T13:48:03.471Z,1002.34
2017-08-30T13:49:12.444Z,1002.38
2017-08-30T13:50:21.344Z,1002.31
2017-08-30T13:51:30.621Z,1002.34
2017-08-30T13:52:40.224Z,1002.27
2017-08-30T13:53:49.219Z,1002.32
2017-08-30T13:54:58.206Z,1002.31
2017-08-30T13:56:07.267Z,1002.36
2017-08-30T13:57:16.247Z,1002.32
2017-08-30T13:58:25.208Z,1002.35
2017-08-30T13:59:33.864Z,1002.34
2017-08-30T14:00:43.459Z,1002.31
2017-08-30T14:01:52.585Z,1002.3
2017-08-30T14:03:01.865Z,1002.22
2017-08-30T14:04:10.858Z,1002.2
2017-08-30T14:05:19.828Z,1002.24
2017-08-30T14:06:28.487Z,1002.19
2017-08-30T14:07:37.677Z,1002.22
2017-08-30T14:08:46.335Z,1002.18
2017-08-30T14:09:55.710Z,1002.2
2017-08-30T14:11:05.717Z,1002.22
2017-08-30T14:12:15.014Z,1002.23
2017-08-30T14:13:23.860Z,1002.23
2017-08-30T14:14:33.152Z,1002.25
2017-08-30T14:15:41.808Z,1002.2
2017-08-30T14:16:51.107Z,1002.27
2017-08-30T14:18:00.400Z,1002.3
2017-08-30T14:19:09.426Z,1002.32
2017-08-30T14:20:18.404Z,1002.33
2017-08-30T14:21:27.052Z,1002.36
2017-08-30T14:22:36.013Z,1002.32
2017-08-30T14:23:45.294Z,1002.3
2017-08-30T14:24:54.099Z,1002.31
2017-08-30T14:26:02.763Z,1002.29
2017-08-30T14:27:12.055Z,1002.31
2017-08-30T14:28:21.023Z,1002.29